sensor_id;sensor_type;location;lat;lon;timestamp;P1;durP1;ratioP1;P2;durP2;ratioP2
19907;SDS011;10116;53.112;7.356;2023-05-17T00:00:57;4.10;;;3.70;;
19907;SDS011;10116;53.112;7.356;2023-05-17T00:03:23;5.90;;;4.20;;
19907;SDS011;10116;53.112;7.356;2023-05-17T00:05:48;4.03;;;3.63;;
19907;SDS011;10116;53.112;7.356;2023-05-17T00:08:14;4.30;;;3.90;;
19907;SDS011;10116;53.112;7.356;2023-05-17T00:10:40;4.80;;;4.30;;
19907;SDS011;10116;53.112;7.356;2023-05-17T00:13:05;4.93;;;4.30;;
19907;SDS011;10116;53.112;7.356;2023-05-17T00:15:31;5.70;;;4.13;;
19907;SDS011;10116;53.112;7.356;2023-05-17T00:17:57;4.40;;;4.00;;
19907;SDS011;10116;53.112;7.356;2023-05-17T00:20:22;4.73;;;4.33;;
19907;SDS011;10116;53.112;7.356;2023-05-17T00:22:48;4.90;;;4.50;;
19907;SDS011;10116;53.112;7.356;2023-05-17T00:25:13;4.40;;;4.00;;
19907;SDS011;10116;53.112;7.356;2023-05-17T00:27:39;4.17;;;3.87;;
19907;SDS011;10116;53.112;7.356;2023-05-17T00:30:05;4.20;;;3.90;;
19907;SDS011;10116;53.112;7.356;2023-05-17T00:32:31;4.43;;;4.03;;
19907;SDS011;10116;53.112;7.356;2023-05-17T00:34:57;3.97;;;3.67;;
19907;SDS011;10116;53.112;7.356;2023-05-17T00:37:22;4.73;;;4.23;;
19907;SDS011;10116;53.112;7.356;2023-05-17T00:39:48;5.27;;;4.33;;
19907;SDS011;10116;53.112;7.356;2023-05-17T00:42:13;4.27;;;3.87;;
19907;SDS011;10116;53.112;7.356;2023-05-17T00:44:39;5.20;;;4.30;;
19907;SDS011;10116;53.112;7.356;2023-05-17T00:47:05;4.03;;;3.60;;
19907;SDS011;10116;53.112;7.356;2023-05-17T00:49:31;4.90;;;4.40;;
19907;SDS011;10116;53.112;7.356;2023-05-17T00:51:57;6.17;;;4.40;;
19907;SDS011;10116;53.112;7.356;2023-05-17T00:54:22;5.00;;;4.50;;
19907;SDS011;10116;53.112;7.356;2023-05-17T00:56:49;6.37;;;4.97;;
19907;SDS011;10116;53.112;7.356;2023-05-17T00:59:16;5.27;;;4.50;;
19907;SDS011;10116;53.112;7.356;2023-05-17T01:01:42;5.20;;;4.70;;
19907;SDS011;10116;53.112;7.356;2023-05-17T01:04:08;5.10;;;4.67;;
19907;SDS011;10116;53.112;7.356;2023-05-17T01:06:34;7.97;;;5.87;;
19907;SDS011;10116;53.112;7.356;2023-05-17T01:09:01;5.83;;;5.23;;
19907;SDS011;10116;53.112;7.356;2023-05-17T01:14:27;7.03;;;5.63;;
19907;SDS011;10116;53.112;7.356;2023-05-17T01:17:03;5.70;;;5.10;;
19907;SDS011;10116;53.112;7.356;2023-05-17T01:20:08;6.87;;;6.17;;
19907;SDS011;10116;53.112;7.356;2023-05-17T01:28:37;5.40;;;5.00;;
19907;SDS011;10116;53.112;7.356;2023-05-17T01:31:04;7.80;;;5.30;;
19907;SDS011;10116;53.112;7.356;2023-05-17T01:33:32;5.37;;;4.87;;
19907;SDS011;10116;53.112;7.356;2023-05-17T01:35:58;5.80;;;5.30;;
19907;SDS011;10116;53.112;7.356;2023-05-17T01:38:23;7.30;;;5.77;;
19907;SDS011;10116;53.112;7.356;2023-05-17T01:41:04;6.30;;;5.47;;
19907;SDS011;10116;53.112;7.356;2023-05-17T01:46:32;5.40;;;4.90;;
19907;SDS011;10116;53.112;7.356;2023-05-17T01:51:33;5.80;;;5.23;;
19907;SDS011;10116;53.112;7.356;2023-05-17T01:54:04;6.63;;;6.03;;
19907;SDS011;10116;53.112;7.356;2023-05-17T01:56:37;7.17;;;6.47;;
19907;SDS011;10116;53.112;7.356;2023-05-17T01:59:07;7.20;;;6.23;;
19907;SDS011;10116;53.112;7.356;2023-05-17T02:01:35;7.73;;;6.33;;
19907;SDS011;10116;53.112;7.356;2023-05-17T02:04:02;6.50;;;5.80;;
19907;SDS011;10116;53.112;7.356;2023-05-17T02:06:28;6.67;;;5.97;;
19907;SDS011;10116;53.112;7.356;2023-05-17T02:08:54;7.67;;;6.20;;
19907;SDS011;10116;53.112;7.356;2023-05-17T02:11:19;7.23;;;6.53;;
19907;SDS011;10116;53.112;7.356;2023-05-17T02:13:45;7.37;;;6.03;;
19907;SDS011;10116;53.112;7.356;2023-05-17T02:16:10;7.50;;;6.70;;
19907;SDS011;10116;53.112;7.356;2023-05-17T02:18:36;8.53;;;7.07;;
19907;SDS011;10116;53.112;7.356;2023-05-17T02:21:02;8.20;;;6.70;;
19907;SDS011;10116;53.112;7.356;2023-05-17T02:23:28;7.97;;;6.53;;
19907;SDS011;10116;53.112;7.356;2023-05-17T02:25:53;8.27;;;6.60;;
19907;SDS011;10116;53.112;7.356;2023-05-17T02:28:19;7.90;;;7.10;;
19907;SDS011;10116;53.112;7.356;2023-05-17T02:30:45;7.50;;;6.40;;
19907;SDS011;10116;53.112;7.356;2023-05-17T02:33:10;7.93;;;6.90;;
19907;SDS011;10116;53.112;7.356;2023-05-17T02:35:36;8.33;;;6.90;;
19907;SDS011;10116;53.112;7.356;2023-05-17T02:38:01;7.33;;;6.63;;
19907;SDS011;10116;53.112;7.356;2023-05-17T02:40:27;8.47;;;7.10;;
19907;SDS011;10116;53.112;7.356;2023-05-17T02:42:52;7.90;;;7.20;;
19907;SDS011;10116;53.112;7.356;2023-05-17T02:45:18;8.40;;;7.50;;
19907;SDS011;10116;53.112;7.356;2023-05-17T02:47:44;8.27;;;7.40;;
19907;SDS011;10116;53.112;7.356;2023-05-17T02:50:09;8.30;;;7.43;;
19907;SDS011;10116;53.112;7.356;2023-05-17T02:52:35;8.50;;;7.60;;
19907;SDS011;10116;53.112;7.356;2023-05-17T02:55:01;7.87;;;7.03;;
19907;SDS011;10116;53.112;7.356;2023-05-17T02:57:26;7.23;;;6.53;;
19907;SDS011;10116;53.112;7.356;2023-05-17T02:59:52;9.40;;;8.13;;
19907;SDS011;10116;53.112;7.356;2023-05-17T03:02:17;9.50;;;8.57;;
19907;SDS011;10116;53.112;7.356;2023-05-17T03:04:43;8.40;;;7.60;;
19907;SDS011;10116;53.112;7.356;2023-05-17T03:07:09;10.40;;;9.30;;
19907;SDS011;10116;53.112;7.356;2023-05-17T03:09:34;11.50;;;9.33;;
19907;SDS011;10116;53.112;7.356;2023-05-17T03:12:01;10.63;;;9.20;;
19907;SDS011;10116;53.112;7.356;2023-05-17T03:14:27;13.03;;;10.73;;
19907;SDS011;10116;53.112;7.356;2023-05-17T03:16:52;13.50;;;10.80;;
19907;SDS011;10116;53.112;7.356;2023-05-17T03:19:18;13.87;;;11.93;;
19907;SDS011;10116;53.112;7.356;2023-05-17T03:21:43;13.30;;;11.90;;
19907;SDS011;10116;53.112;7.356;2023-05-17T03:24:09;15.27;;;12.40;;
19907;SDS011;10116;53.112;7.356;2023-05-17T03:26:35;13.47;;;11.80;;
19907;SDS011;10116;53.112;7.356;2023-05-17T03:29:00;13.00;;;11.67;;
19907;SDS011;10116;53.112;7.356;2023-05-17T03:31:26;13.23;;;11.80;;
19907;SDS011;10116;53.112;7.356;2023-05-17T03:33:51;12.30;;;10.90;;
19907;SDS011;10116;53.112;7.356;2023-05-17T03:36:17;13.27;;;11.47;;
19907;SDS011;10116;53.112;7.356;2023-05-17T03:38:43;14.53;;;12.70;;
19907;SDS011;10116;53.112;7.356;2023-05-17T03:41:09;13.03;;;11.20;;
19907;SDS011;10116;53.112;7.356;2023-05-17T03:43:34;13.60;;;12.17;;
19907;SDS011;10116;53.112;7.356;2023-05-17T03:46:00;13.00;;;11.53;;
19907;SDS011;10116;53.112;7.356;2023-05-17T03:48:26;13.67;;;11.30;;
19907;SDS011;10116;53.112;7.356;2023-05-17T03:50:51;14.47;;;12.87;;
19907;SDS011;10116;53.112;7.356;2023-05-17T03:53:17;13.43;;;11.60;;
19907;SDS011;10116;53.112;7.356;2023-05-17T03:55:42;16.60;;;13.73;;
19907;SDS011;10116;53.112;7.356;2023-05-17T03:58:08;15.53;;;13.03;;
19907;SDS011;10116;53.112;7.356;2023-05-17T04:00:34;13.87;;;12.37;;
19907;SDS011;10116;53.112;7.356;2023-05-17T04:03:00;13.93;;;12.00;;
19907;SDS011;10116;53.112;7.356;2023-05-17T04:05:25;13.53;;;11.90;;
19907;SDS011;10116;53.112;7.356;2023-05-17T04:07:51;13.10;;;11.60;;
19907;SDS011;10116;53.112;7.356;2023-05-17T04:10:17;14.70;;;12.40;;
19907;SDS011;10116;53.112;7.356;2023-05-17T04:12:43;13.20;;;11.47;;
19907;SDS011;10116;53.112;7.356;2023-05-17T04:15:08;13.70;;;11.43;;
19907;SDS011;10116;53.112;7.356;2023-05-17T04:17:34;10.90;;;9.80;;
19907;SDS011;10116;53.112;7.356;2023-05-17T04:20:00;12.33;;;10.80;;
19907;SDS011;10116;53.112;7.356;2023-05-17T04:22:26;12.13;;;10.57;;
19907;SDS011;10116;53.112;7.356;2023-05-17T04:24:51;10.87;;;9.87;;
19907;SDS011;10116;53.112;7.356;2023-05-17T04:27:17;11.10;;;9.90;;
19907;SDS011;10116;53.112;7.356;2023-05-17T04:29:43;11.27;;;10.03;;
19907;SDS011;10116;53.112;7.356;2023-05-17T04:32:08;11.30;;;10.13;;
19907;SDS011;10116;53.112;7.356;2023-05-17T04:34:34;11.93;;;10.67;;
19907;SDS011;10116;53.112;7.356;2023-05-17T04:37:00;13.40;;;9.17;;
19907;SDS011;10116;53.112;7.356;2023-05-17T04:39:26;9.27;;;8.30;;
19907;SDS011;10116;53.112;7.356;2023-05-17T04:41:52;10.07;;;8.93;;
19907;SDS011;10116;53.112;7.356;2023-05-17T04:44:17;9.40;;;8.40;;
19907;SDS011;10116;53.112;7.356;2023-05-17T04:46:43;9.27;;;8.30;;
19907;SDS011;10116;53.112;7.356;2023-05-17T04:49:09;11.30;;;8.10;;
19907;SDS011;10116;53.112;7.356;2023-05-17T04:51:35;8.43;;;7.63;;
19907;SDS011;10116;53.112;7.356;2023-05-17T04:54:01;10.33;;;8.20;;
19907;SDS011;10116;53.112;7.356;2023-05-17T04:56:30;8.30;;;7.50;;
19907;SDS011;10116;53.112;7.356;2023-05-17T04:58:57;9.83;;;8.30;;
19907;SDS011;10116;53.112;7.356;2023-05-17T05:01:22;7.77;;;6.97;;
19907;SDS011;10116;53.112;7.356;2023-05-17T05:03:48;7.50;;;6.80;;
19907;SDS011;10116;53.112;7.356;2023-05-17T05:06:13;7.10;;;6.40;;
19907;SDS011;10116;53.112;7.356;2023-05-17T05:08:40;7.83;;;7.13;;
19907;SDS011;10116;53.112;7.356;2023-05-17T05:11:06;7.57;;;6.77;;
19907;SDS011;10116;53.112;7.356;2023-05-17T05:13:31;7.43;;;6.47;;
19907;SDS011;10116;53.112;7.356;2023-05-17T05:15:57;7.10;;;6.30;;
19907;SDS011;10116;53.112;7.356;2023-05-17T05:18:22;6.23;;;5.57;;
19907;SDS011;10116;53.112;7.356;2023-05-17T05:20:48;6.80;;;6.20;;
19907;SDS011;10116;53.112;7.356;2023-05-17T05:23:14;6.13;;;5.63;;
19907;SDS011;10116;53.112;7.356;2023-05-17T05:25:39;6.43;;;5.70;;
19907;SDS011;10116;53.112;7.356;2023-05-17T05:28:05;5.90;;;5.03;;
19907;SDS011;10116;53.112;7.356;2023-05-17T05:30:31;5.97;;;5.37;;
19907;SDS011;10116;53.112;7.356;2023-05-17T05:32:56;6.17;;;5.00;;
19907;SDS011;10116;53.112;7.356;2023-05-17T05:35:22;5.30;;;4.80;;
19907;SDS011;10116;53.112;7.356;2023-05-17T05:37:57;5.07;;;4.57;;
19907;SDS011;10116;53.112;7.356;2023-05-17T05:40:23;4.87;;;4.33;;
19907;SDS011;10116;53.112;7.356;2023-05-17T05:42:49;5.27;;;4.87;;
19907;SDS011;10116;53.112;7.356;2023-05-17T05:45:15;8.10;;;4.17;;
19907;SDS011;10116;53.112;7.356;2023-05-17T05:47:41;4.60;;;4.20;;
19907;SDS011;10116;53.112;7.356;2023-05-17T05:50:07;4.80;;;4.30;;
19907;SDS011;10116;53.112;7.356;2023-05-17T05:52:33;4.87;;;4.10;;
19907;SDS011;10116;53.112;7.356;2023-05-17T05:54:59;4.17;;;3.73;;
19907;SDS011;10116;53.112;7.356;2023-05-17T05:57:25;9.77;;;4.47;;
19907;SDS011;10116;53.112;7.356;2023-05-17T05:59:50;4.87;;;4.30;;
19907;SDS011;10116;53.112;7.356;2023-05-17T06:02:16;4.07;;;3.67;;
19907;SDS011;10116;53.112;7.356;2023-05-17T06:04:43;5.87;;;3.47;;
19907;SDS011;10116;53.112;7.356;2023-05-17T06:07:08;8.40;;;3.67;;
19907;SDS011;10116;53.112;7.356;2023-05-17T06:09:34;5.40;;;3.40;;
19907;SDS011;10116;53.112;7.356;2023-05-17T06:11:59;3.73;;;3.30;;
19907;SDS011;10116;53.112;7.356;2023-05-17T06:14:25;8.27;;;2.43;;
19907;SDS011;10116;53.112;7.356;2023-05-17T06:16:51;3.30;;;3.00;;
19907;SDS011;10116;53.112;7.356;2023-05-17T06:19:16;3.50;;;3.20;;
19907;SDS011;10116;53.112;7.356;2023-05-17T06:21:42;3.83;;;3.33;;
19907;SDS011;10116;53.112;7.356;2023-05-17T06:24:08;3.57;;;3.23;;
19907;SDS011;10116;53.112;7.356;2023-05-17T06:26:33;4.07;;;2.97;;
19907;SDS011;10116;53.112;7.356;2023-05-17T06:28:59;12.70;;;2.83;;
19907;SDS011;10116;53.112;7.356;2023-05-17T06:31:25;3.10;;;2.77;;
19907;SDS011;10116;53.112;7.356;2023-05-17T06:33:50;4.13;;;2.50;;
19907;SDS011;10116;53.112;7.356;2023-05-17T06:36:16;3.30;;;2.67;;
19907;SDS011;10116;53.112;7.356;2023-05-17T06:38:41;2.77;;;2.40;;
19907;SDS011;10116;53.112;7.356;2023-05-17T06:41:07;4.67;;;2.50;;
19907;SDS011;10116;53.112;7.356;2023-05-17T06:43:33;2.63;;;2.43;;
19907;SDS011;10116;53.112;7.356;2023-05-17T06:45:58;3.23;;;2.10;;
19907;SDS011;10116;53.112;7.356;2023-05-17T06:48:24;3.40;;;2.73;;
19907;SDS011;10116;53.112;7.356;2023-05-17T06:50:50;2.83;;;2.03;;
19907;SDS011;10116;53.112;7.356;2023-05-17T06:53:15;3.23;;;2.50;;
19907;SDS011;10116;53.112;7.356;2023-05-17T06:55:41;8.43;;;2.37;;
19907;SDS011;10116;53.112;7.356;2023-05-17T06:58:07;6.80;;;2.43;;
19907;SDS011;10116;53.112;7.356;2023-05-17T07:00:33;3.37;;;2.00;;
19907;SDS011;10116;53.112;7.356;2023-05-17T07:02:59;2.40;;;2.00;;
19907;SDS011;10116;53.112;7.356;2023-05-17T07:05:24;2.60;;;2.33;;
19907;SDS011;10116;53.112;7.356;2023-05-17T07:07:51;2.43;;;1.70;;
19907;SDS011;10116;53.112;7.356;2023-05-17T07:10:17;3.33;;;1.90;;
19907;SDS011;10116;53.112;7.356;2023-05-17T07:12:43;3.30;;;2.00;;
19907;SDS011;10116;53.112;7.356;2023-05-17T07:15:08;2.33;;;2.13;;
19907;SDS011;10116;53.112;7.356;2023-05-17T07:17:35;4.33;;;2.40;;
19907;SDS011;10116;53.112;7.356;2023-05-17T07:20:01;3.20;;;2.07;;
19907;SDS011;10116;53.112;7.356;2023-05-17T07:22:27;4.73;;;2.20;;
19907;SDS011;10116;53.112;7.356;2023-05-17T07:24:53;3.77;;;2.00;;
19907;SDS011;10116;53.112;7.356;2023-05-17T07:27:18;2.87;;;2.00;;
19907;SDS011;10116;53.112;7.356;2023-05-17T07:29:44;1.67;;;1.57;;
19907;SDS011;10116;53.112;7.356;2023-05-17T07:32:10;4.13;;;2.23;;
19907;SDS011;10116;53.112;7.356;2023-05-17T07:34:35;2.10;;;1.73;;
19907;SDS011;10116;53.112;7.356;2023-05-17T07:37:01;3.57;;;1.70;;
19907;SDS011;10116;53.112;7.356;2023-05-17T07:39:27;5.40;;;2.97;;
19907;SDS011;10116;53.112;7.356;2023-05-17T07:41:52;1.90;;;1.67;;
19907;SDS011;10116;53.112;7.356;2023-05-17T07:44:18;5.53;;;3.20;;
19907;SDS011;10116;53.112;7.356;2023-05-17T07:46:45;9.50;;;3.63;;
19907;SDS011;10116;53.112;7.356;2023-05-17T07:49:11;8.03;;;3.40;;
19907;SDS011;10116;53.112;7.356;2023-05-17T07:51:38;7.67;;;3.17;;
19907;SDS011;10116;53.112;7.356;2023-05-17T07:54:04;6.60;;;3.23;;
19907;SDS011;10116;53.112;7.356;2023-05-17T07:56:29;5.07;;;2.70;;
19907;SDS011;10116;53.112;7.356;2023-05-17T07:58:55;8.97;;;3.40;;
19907;SDS011;10116;53.112;7.356;2023-05-17T08:01:21;8.37;;;3.40;;
19907;SDS011;10116;53.112;7.356;2023-05-17T08:03:47;4.47;;;2.80;;
19907;SDS011;10116;53.112;7.356;2023-05-17T08:06:16;7.60;;;3.00;;
19907;SDS011;10116;53.112;7.356;2023-05-17T08:08:42;7.10;;;3.23;;
19907;SDS011;10116;53.112;7.356;2023-05-17T08:11:09;5.70;;;2.43;;
19907;SDS011;10116;53.112;7.356;2023-05-17T08:13:36;5.03;;;2.50;;
19907;SDS011;10116;53.112;7.356;2023-05-17T08:16:01;5.30;;;3.07;;
19907;SDS011;10116;53.112;7.356;2023-05-17T08:18:31;4.03;;;2.20;;
19907;SDS011;10116;53.112;7.356;2023-05-17T08:20:58;4.90;;;2.43;;
19907;SDS011;10116;53.112;7.356;2023-05-17T08:23:24;6.57;;;2.90;;
19907;SDS011;10116;53.112;7.356;2023-05-17T08:25:50;3.00;;;2.17;;
19907;SDS011;10116;53.112;7.356;2023-05-17T08:28:15;4.40;;;2.40;;
19907;SDS011;10116;53.112;7.356;2023-05-17T08:30:42;6.57;;;2.67;;
19907;SDS011;10116;53.112;7.356;2023-05-17T08:33:10;4.20;;;2.00;;
19907;SDS011;10116;53.112;7.356;2023-05-17T08:35:36;5.90;;;2.37;;
19907;SDS011;10116;53.112;7.356;2023-05-17T08:38:02;3.50;;;2.03;;
19907;SDS011;10116;53.112;7.356;2023-05-17T08:40:27;3.13;;;1.90;;
19907;SDS011;10116;53.112;7.356;2023-05-17T08:42:53;4.40;;;2.00;;
19907;SDS011;10116;53.112;7.356;2023-05-17T08:45:19;4.40;;;2.50;;
19907;SDS011;10116;53.112;7.356;2023-05-17T08:47:46;1.97;;;1.70;;
19907;SDS011;10116;53.112;7.356;2023-05-17T08:50:13;3.73;;;1.90;;
19907;SDS011;10116;53.112;7.356;2023-05-17T08:52:39;2.83;;;2.10;;
19907;SDS011;10116;53.112;7.356;2023-05-17T08:55:06;4.10;;;1.97;;
19907;SDS011;10116;53.112;7.356;2023-05-17T08:57:33;3.97;;;1.90;;
19907;SDS011;10116;53.112;7.356;2023-05-17T09:00:02;2.27;;;2.07;;
19907;SDS011;10116;53.112;7.356;2023-05-17T09:02:37;1.57;;;1.47;;
19907;SDS011;10116;53.112;7.356;2023-05-17T09:05:04;3.07;;;1.73;;
19907;SDS011;10116;53.112;7.356;2023-05-17T09:07:30;4.30;;;2.30;;
19907;SDS011;10116;53.112;7.356;2023-05-17T09:09:57;2.90;;;1.80;;
19907;SDS011;10116;53.112;7.356;2023-05-17T09:12:22;5.50;;;1.80;;
19907;SDS011;10116;53.112;7.356;2023-05-17T09:14:48;3.30;;;2.30;;
19907;SDS011;10116;53.112;7.356;2023-05-17T09:17:18;1.73;;;1.50;;
19907;SDS011;10116;53.112;7.356;2023-05-17T09:19:45;3.27;;;1.70;;
19907;SDS011;10116;53.112;7.356;2023-05-17T09:22:12;3.70;;;2.00;;
19907;SDS011;10116;53.112;7.356;2023-05-17T09:24:39;3.20;;;1.50;;
19907;SDS011;10116;53.112;7.356;2023-05-17T09:27:06;1.60;;;1.50;;
19907;SDS011;10116;53.112;7.356;2023-05-17T09:29:32;4.40;;;1.77;;
19907;SDS011;10116;53.112;7.356;2023-05-17T09:32:15;3.80;;;1.90;;
19907;SDS011;10116;53.112;7.356;2023-05-17T09:34:42;2.80;;;1.40;;
19907;SDS011;10116;53.112;7.356;2023-05-17T09:37:16;3.63;;;1.63;;
19907;SDS011;10116;53.112;7.356;2023-05-17T09:39:43;3.07;;;1.60;;
19907;SDS011;10116;53.112;7.356;2023-05-17T09:42:10;3.80;;;1.60;;
19907;SDS011;10116;53.112;7.356;2023-05-17T09:44:46;4.30;;;1.90;;
19907;SDS011;10116;53.112;7.356;2023-05-17T09:47:23;1.73;;;1.43;;
19907;SDS011;10116;53.112;7.356;2023-05-17T09:49:49;3.00;;;1.80;;
19907;SDS011;10116;53.112;7.356;2023-05-17T09:52:18;2.83;;;1.60;;
19907;SDS011;10116;53.112;7.356;2023-05-17T09:55:03;2.03;;;1.30;;
19907;SDS011;10116;53.112;7.356;2023-05-17T09:57:36;3.07;;;1.47;;
19907;SDS011;10116;53.112;7.356;2023-05-17T10:00:03;1.37;;;1.17;;
19907;SDS011;10116;53.112;7.356;2023-05-17T10:02:36;2.60;;;1.53;;
19907;SDS011;10116;53.112;7.356;2023-05-17T10:05:03;1.07;;;0.97;;
19907;SDS011;10116;53.112;7.356;2023-05-17T10:07:29;1.53;;;1.43;;
19907;SDS011;10116;53.112;7.356;2023-05-17T10:09:56;3.30;;;1.40;;
19907;SDS011;10116;53.112;7.356;2023-05-17T10:12:22;3.20;;;1.70;;
19907;SDS011;10116;53.112;7.356;2023-05-17T10:14:52;3.47;;;1.60;;
19907;SDS011;10116;53.112;7.356;2023-05-17T10:17:19;1.00;;;1.00;;
19907;SDS011;10116;53.112;7.356;2023-05-17T10:19:46;1.93;;;1.30;;
19907;SDS011;10116;53.112;7.356;2023-05-17T10:22:13;1.63;;;1.33;;
19907;SDS011;10116;53.112;7.356;2023-05-17T10:24:41;1.73;;;1.10;;
19907;SDS011;10116;53.112;7.356;2023-05-17T10:27:07;2.00;;;1.67;;
19907;SDS011;10116;53.112;7.356;2023-05-17T10:29:34;1.53;;;1.10;;
19907;SDS011;10116;53.112;7.356;2023-05-17T10:32:03;1.60;;;1.47;;
19907;SDS011;10116;53.112;7.356;2023-05-17T10:34:34;4.60;;;1.57;;
19907;SDS011;10116;53.112;7.356;2023-05-17T10:37:00;1.50;;;1.40;;
19907;SDS011;10116;53.112;7.356;2023-05-17T10:39:27;1.60;;;1.27;;
19907;SDS011;10116;53.112;7.356;2023-05-17T10:41:53;3.07;;;1.40;;
19907;SDS011;10116;53.112;7.356;2023-05-17T10:44:21;5.73;;;2.00;;
19907;SDS011;10116;53.112;7.356;2023-05-17T10:46:53;3.17;;;1.47;;
19907;SDS011;10116;53.112;7.356;2023-05-17T10:49:22;3.50;;;1.27;;
19907;SDS011;10116;53.112;7.356;2023-05-17T10:52:10;3.10;;;1.17;;
19907;SDS011;10116;53.112;7.356;2023-05-17T10:54:38;3.03;;;1.60;;
19907;SDS011;10116;53.112;7.356;2023-05-17T10:57:05;4.50;;;1.50;;
19907;SDS011;10116;53.112;7.356;2023-05-17T10:59:32;2.03;;;1.20;;
19907;SDS011;10116;53.112;7.356;2023-05-17T11:02:06;2.70;;;1.23;;
19907;SDS011;10116;53.112;7.356;2023-05-17T11:04:36;2.23;;;1.30;;
19907;SDS011;10116;53.112;7.356;2023-05-17T11:09:41;1.30;;;1.20;;
19907;SDS011;10116;53.112;7.356;2023-05-17T11:12:11;2.67;;;1.70;;
19907;SDS011;10116;53.112;7.356;2023-05-17T11:17:17;2.70;;;1.73;;
19907;SDS011;10116;53.112;7.356;2023-05-17T11:22:21;3.40;;;0.93;;
19907;SDS011;10116;53.112;7.356;2023-05-17T11:24:47;1.40;;;1.30;;
19907;SDS011;10116;53.112;7.356;2023-05-17T11:27:18;2.33;;;1.13;;
19907;SDS011;10116;53.112;7.356;2023-05-17T11:29:47;2.20;;;1.20;;
19907;SDS011;10116;53.112;7.356;2023-05-17T11:32:13;2.80;;;1.17;;
19907;SDS011;10116;53.112;7.356;2023-05-17T11:34:39;4.77;;;1.63;;
19907;SDS011;10116;53.112;7.356;2023-05-17T11:37:04;1.90;;;1.20;;
19907;SDS011;10116;53.112;7.356;2023-05-17T11:39:34;5.30;;;1.27;;
19907;SDS011;10116;53.112;7.356;2023-05-17T11:42:00;2.43;;;1.10;;
19907;SDS011;10116;53.112;7.356;2023-05-17T11:44:30;2.57;;;1.30;;
19907;SDS011;10116;53.112;7.356;2023-05-17T11:47:02;1.90;;;1.30;;
19907;SDS011;10116;53.112;7.356;2023-05-17T11:49:30;2.70;;;1.23;;
19907;SDS011;10116;53.112;7.356;2023-05-17T11:51:57;1.40;;;0.90;;
19907;SDS011;10116;53.112;7.356;2023-05-17T11:54:23;1.33;;;1.20;;
19907;SDS011;10116;53.112;7.356;2023-05-17T11:56:49;2.27;;;1.30;;
19907;SDS011;10116;53.112;7.356;2023-05-17T11:59:18;2.10;;;1.47;;
19907;SDS011;10116;53.112;7.356;2023-05-17T12:01:45;3.17;;;1.10;;
19907;SDS011;10116;53.112;7.356;2023-05-17T12:04:11;3.40;;;1.43;;
19907;SDS011;10116;53.112;7.356;2023-05-17T12:06:37;1.20;;;1.10;;
19907;SDS011;10116;53.112;7.356;2023-05-17T12:09:03;1.20;;;0.93;;
19907;SDS011;10116;53.112;7.356;2023-05-17T12:11:34;1.67;;;1.10;;
19907;SDS011;10116;53.112;7.356;2023-05-17T12:14:00;2.20;;;1.20;;
19907;SDS011;10116;53.112;7.356;2023-05-17T12:16:26;4.00;;;1.70;;
19907;SDS011;10116;53.112;7.356;2023-05-17T12:18:53;3.83;;;1.30;;
19907;SDS011;10116;53.112;7.356;2023-05-17T12:21:19;2.93;;;1.60;;
19907;SDS011;10116;53.112;7.356;2023-05-17T12:23:45;2.27;;;1.50;;
19907;SDS011;10116;53.112;7.356;2023-05-17T12:28:41;2.93;;;1.30;;
19907;SDS011;10116;53.112;7.356;2023-05-17T12:31:12;3.40;;;1.23;;
19907;SDS011;10116;53.112;7.356;2023-05-17T12:33:41;3.00;;;1.37;;
19907;SDS011;10116;53.112;7.356;2023-05-17T12:36:09;4.50;;;1.50;;
19907;SDS011;10116;53.112;7.356;2023-05-17T12:38:37;4.23;;;1.50;;
19907;SDS011;10116;53.112;7.356;2023-05-17T12:41:05;3.97;;;1.70;;
19907;SDS011;10116;53.112;7.356;2023-05-17T12:43:33;2.93;;;1.70;;
19907;SDS011;10116;53.112;7.356;2023-05-17T12:46:06;2.20;;;1.60;;
19907;SDS011;10116;53.112;7.356;2023-05-17T12:48:42;3.10;;;1.43;;
19907;SDS011;10116;53.112;7.356;2023-05-17T12:51:09;3.37;;;1.80;;
19907;SDS011;10116;53.112;7.356;2023-05-17T12:53:39;3.07;;;1.20;;
19907;SDS011;10116;53.112;7.356;2023-05-17T12:56:19;1.83;;;1.30;;
19907;SDS011;10116;53.112;7.356;2023-05-17T13:01:42;3.17;;;1.40;;
19907;SDS011;10116;53.112;7.356;2023-05-17T13:04:09;4.00;;;1.87;;
19907;SDS011;10116;53.112;7.356;2023-05-17T13:06:55;1.97;;;1.60;;
19907;SDS011;10116;53.112;7.356;2023-05-17T13:09:22;4.13;;;1.50;;
19907;SDS011;10116;53.112;7.356;2023-05-17T13:14:31;2.97;;;1.33;;
19907;SDS011;10116;53.112;7.356;2023-05-17T13:16:57;1.17;;;1.07;;
19907;SDS011;10116;53.112;7.356;2023-05-17T13:19:22;3.23;;;1.70;;
19907;SDS011;10116;53.112;7.356;2023-05-17T13:21:48;2.30;;;1.20;;
19907;SDS011;10116;53.112;7.356;2023-05-17T13:24:14;2.70;;;1.63;;
19907;SDS011;10116;53.112;7.356;2023-05-17T13:26:39;3.90;;;1.40;;
19907;SDS011;10116;53.112;7.356;2023-05-17T13:29:05;1.70;;;1.10;;
19907;SDS011;10116;53.112;7.356;2023-05-17T13:31:30;1.90;;;1.40;;
19907;SDS011;10116;53.112;7.356;2023-05-17T13:33:56;4.80;;;1.37;;
19907;SDS011;10116;53.112;7.356;2023-05-17T13:36:22;2.00;;;1.30;;
19907;SDS011;10116;53.112;7.356;2023-05-17T13:38:48;2.60;;;1.77;;
19907;SDS011;10116;53.112;7.356;2023-05-17T13:41:13;2.40;;;1.60;;
19907;SDS011;10116;53.112;7.356;2023-05-17T13:43:39;1.40;;;1.30;;
19907;SDS011;10116;53.112;7.356;2023-05-17T13:46:05;3.60;;;1.43;;
19907;SDS011;10116;53.112;7.356;2023-05-17T13:48:31;2.07;;;1.00;;
19907;SDS011;10116;53.112;7.356;2023-05-17T13:50:56;1.53;;;1.07;;
19907;SDS011;10116;53.112;7.356;2023-05-17T13:53:22;2.37;;;1.40;;
19907;SDS011;10116;53.112;7.356;2023-05-17T13:55:48;1.40;;;1.30;;
19907;SDS011;10116;53.112;7.356;2023-05-17T13:58:13;3.27;;;1.60;;
19907;SDS011;10116;53.112;7.356;2023-05-17T14:00:40;3.43;;;1.47;;
19907;SDS011;10116;53.112;7.356;2023-05-17T14:03:08;3.00;;;1.47;;
19907;SDS011;10116;53.112;7.356;2023-05-17T14:05:34;2.23;;;1.50;;
19907;SDS011;10116;53.112;7.356;2023-05-17T14:08:01;6.00;;;1.50;;
19907;SDS011;10116;53.112;7.356;2023-05-17T14:10:26;2.97;;;1.37;;
19907;SDS011;10116;53.112;7.356;2023-05-17T14:12:52;2.00;;;1.30;;
19907;SDS011;10116;53.112;7.356;2023-05-17T14:15:18;2.00;;;1.40;;
19907;SDS011;10116;53.112;7.356;2023-05-17T14:17:43;4.57;;;1.73;;
19907;SDS011;10116;53.112;7.356;2023-05-17T14:20:09;4.13;;;2.00;;
19907;SDS011;10116;53.112;7.356;2023-05-17T14:22:35;3.60;;;1.57;;
19907;SDS011;10116;53.112;7.356;2023-05-17T14:25:01;2.00;;;1.37;;
19907;SDS011;10116;53.112;7.356;2023-05-17T14:27:27;6.30;;;1.90;;
19907;SDS011;10116;53.112;7.356;2023-05-17T14:29:52;3.37;;;1.60;;
19907;SDS011;10116;53.112;7.356;2023-05-17T14:32:18;2.90;;;1.27;;
19907;SDS011;10116;53.112;7.356;2023-05-17T14:34:43;2.20;;;1.60;;
19907;SDS011;10116;53.112;7.356;2023-05-17T14:37:09;2.03;;;1.17;;
19907;SDS011;10116;53.112;7.356;2023-05-17T14:39:35;3.03;;;1.30;;
19907;SDS011;10116;53.112;7.356;2023-05-17T14:42:00;2.83;;;1.50;;
19907;SDS011;10116;53.112;7.356;2023-05-17T14:44:26;2.10;;;1.50;;
19907;SDS011;10116;53.112;7.356;2023-05-17T14:46:51;3.47;;;1.70;;
19907;SDS011;10116;53.112;7.356;2023-05-17T14:49:17;1.90;;;1.10;;
19907;SDS011;10116;53.112;7.356;2023-05-17T14:51:43;4.40;;;1.70;;
19907;SDS011;10116;53.112;7.356;2023-05-17T14:54:08;4.13;;;1.60;;
19907;SDS011;10116;53.112;7.356;2023-05-17T14:56:34;1.73;;;1.37;;
19907;SDS011;10116;53.112;7.356;2023-05-17T14:59:00;1.87;;;1.30;;
19907;SDS011;10116;53.112;7.356;2023-05-17T15:01:26;2.10;;;1.47;;
19907;SDS011;10116;53.112;7.356;2023-05-17T15:03:52;2.23;;;1.13;;
19907;SDS011;10116;53.112;7.356;2023-05-17T15:06:17;4.20;;;1.77;;
19907;SDS011;10116;53.112;7.356;2023-05-17T15:08:48;2.30;;;1.50;;
19907;SDS011;10116;53.112;7.356;2023-05-17T15:11:14;3.10;;;1.60;;
19907;SDS011;10116;53.112;7.356;2023-05-17T15:13:40;1.93;;;1.30;;